sensor_id;sensor_type;location;lat;lon;timestamp;P1;durP1;ratioP1;P2;durP2;ratioP2
54679;SDS011;40578;53.178;5.846;2023-09-07T00:01:29;9.38;;;7.45;;
54679;SDS011;40578;53.178;5.846;2023-09-07T00:06:21;11.50;;;7.75;;
54679;SDS011;40578;53.178;5.846;2023-09-07T00:08:46;11.00;;;8.53;;
54679;SDS011;40578;53.178;5.846;2023-09-07T00:11:12;9.40;;;8.40;;
54679;SDS011;40578;53.178;5.846;2023-09-07T00:13:38;10.77;;;8.37;;
54679;SDS011;40578;53.178;5.846;2023-09-07T00:16:04;11.27;;;9.07;;
54679;SDS011;40578;53.178;5.846;2023-09-07T00:18:31;9.90;;;8.82;;
54679;SDS011;40578;53.178;5.846;2023-09-07T00:20:57;9.88;;;8.75;;
54679;SDS011;40578;53.178;5.846;2023-09-07T00:23:23;10.60;;;8.50;;
54679;SDS011;40578;53.178;5.846;2023-09-07T00:25:49;10.67;;;8.47;;
54679;SDS011;40578;53.178;5.846;2023-09-07T00:28:14;11.67;;;9.40;;
54679;SDS011;40578;53.178;5.846;2023-09-07T00:30:40;9.97;;;8.87;;
54679;SDS011;40578;53.178;5.846;2023-09-07T00:33:07;11.00;;;9.15;;
54679;SDS011;40578;53.178;5.846;2023-09-07T00:35:33;10.70;;;9.00;;
54679;SDS011;40578;53.178;5.846;2023-09-07T00:37:59;14.27;;;9.10;;
54679;SDS011;40578;53.178;5.846;2023-09-07T00:40:25;9.85;;;8.85;;
54679;SDS011;40578;53.178;5.846;2023-09-07T00:42:51;13.80;;;9.27;;
54679;SDS011;40578;53.178;5.846;2023-09-07T00:45:17;9.98;;;8.93;;
54679;SDS011;40578;53.178;5.846;2023-09-07T00:47:43;10.18;;;9.10;;
54679;SDS011;40578;53.178;5.846;2023-09-07T00:50:09;10.85;;;9.38;;
54679;SDS011;40578;53.178;5.846;2023-09-07T00:52:38;10.70;;;8.52;;
54679;SDS011;40578;53.178;5.846;2023-09-07T00:55:07;10.27;;;8.88;;
54679;SDS011;40578;53.178;5.846;2023-09-07T00:57:35;10.15;;;7.57;;
54679;SDS011;40578;53.178;5.846;2023-09-07T01:00:05;9.98;;;8.48;;
54679;SDS011;40578;53.178;5.846;2023-09-07T01:02:32;12.00;;;9.32;;
54679;SDS011;40578;53.178;5.846;2023-09-07T01:04:58;11.50;;;8.63;;
54679;SDS011;40578;53.178;5.846;2023-09-07T01:07:25;8.45;;;7.57;;
54679;SDS011;40578;53.178;5.846;2023-09-07T01:09:56;10.90;;;9.00;;
54679;SDS011;40578;53.178;5.846;2023-09-07T01:12:24;12.57;;;8.02;;
54679;SDS011;40578;53.178;5.846;2023-09-07T01:14:50;13.33;;;8.70;;
54679;SDS011;40578;53.178;5.846;2023-09-07T01:17:15;13.40;;;7.63;;
54679;SDS011;40578;53.178;5.846;2023-09-07T01:19:41;10.40;;;8.23;;
54679;SDS011;40578;53.178;5.846;2023-09-07T01:22:09;8.23;;;7.25;;
54679;SDS011;40578;53.178;5.846;2023-09-07T01:24:36;10.80;;;8.48;;
54679;SDS011;40578;53.178;5.846;2023-09-07T01:27:03;11.82;;;8.40;;
54679;SDS011;40578;53.178;5.846;2023-09-07T01:29:30;9.90;;;7.97;;
54679;SDS011;40578;53.178;5.846;2023-09-07T01:31:56;9.80;;;7.45;;
54679;SDS011;40578;53.178;5.846;2023-09-07T01:34:23;10.13;;;8.20;;
54679;SDS011;40578;53.178;5.846;2023-09-07T01:36:49;8.95;;;7.95;;
54679;SDS011;40578;53.178;5.846;2023-09-07T01:39:15;11.48;;;8.48;;
54679;SDS011;40578;53.178;5.846;2023-09-07T01:41:42;11.65;;;8.63;;
54679;SDS011;40578;53.178;5.846;2023-09-07T01:44:08;10.93;;;9.05;;
54679;SDS011;40578;53.178;5.846;2023-09-07T01:46:34;12.75;;;8.25;;
54679;SDS011;40578;53.178;5.846;2023-09-07T01:49:01;11.35;;;9.25;;
54679;SDS011;40578;53.178;5.846;2023-09-07T01:51:27;13.18;;;9.45;;
54679;SDS011;40578;53.178;5.846;2023-09-07T01:53:53;11.30;;;9.85;;
54679;SDS011;40578;53.178;5.846;2023-09-07T01:56:19;10.25;;;9.00;;
54679;SDS011;40578;53.178;5.846;2023-09-07T01:58:45;13.97;;;9.23;;
54679;SDS011;40578;53.178;5.846;2023-09-07T02:01:23;11.13;;;9.30;;
54679;SDS011;40578;53.178;5.846;2023-09-07T02:03:51;11.85;;;9.38;;
54679;SDS011;40578;53.178;5.846;2023-09-07T02:06:17;12.20;;;8.82;;
54679;SDS011;40578;53.178;5.846;2023-09-07T02:08:43;13.13;;;8.95;;
54679;SDS011;40578;53.178;5.846;2023-09-07T02:11:09;11.80;;;8.90;;
54679;SDS011;40578;53.178;5.846;2023-09-07T02:13:34;11.80;;;9.50;;
54679;SDS011;40578;53.178;5.846;2023-09-07T02:16:04;10.43;;;9.43;;
54679;SDS011;40578;53.178;5.846;2023-09-07T02:18:31;10.93;;;9.70;;
54679;SDS011;40578;53.178;5.846;2023-09-07T02:21:04;12.40;;;9.23;;
54679;SDS011;40578;53.178;5.846;2023-09-07T02:23:33;14.18;;;9.43;;
54679;SDS011;40578;53.178;5.846;2023-09-07T02:25:59;12.43;;;8.95;;
54679;SDS011;40578;53.178;5.846;2023-09-07T02:28:24;11.55;;;8.73;;
54679;SDS011;40578;53.178;5.846;2023-09-07T02:30:53;10.37;;;9.00;;
54679;SDS011;40578;53.178;5.846;2023-09-07T02:33:19;11.30;;;8.52;;
54679;SDS011;40578;53.178;5.846;2023-09-07T02:35:44;10.63;;;9.40;;
54679;SDS011;40578;53.178;5.846;2023-09-07T02:38:12;12.13;;;9.57;;
54679;SDS011;40578;53.178;5.846;2023-09-07T02:40:44;11.48;;;9.07;;
54679;SDS011;40578;53.178;5.846;2023-09-07T02:43:10;10.90;;;8.90;;
54679;SDS011;40578;53.178;5.846;2023-09-07T02:45:36;11.88;;;9.00;;
54679;SDS011;40578;53.178;5.846;2023-09-07T02:48:03;10.98;;;8.68;;
54679;SDS011;40578;53.178;5.846;2023-09-07T02:50:30;12.15;;;9.43;;
54679;SDS011;40578;53.178;5.846;2023-09-07T02:52:57;11.60;;;9.38;;
54679;SDS011;40578;53.178;5.846;2023-09-07T02:55:22;10.90;;;8.60;;
54679;SDS011;40578;53.178;5.846;2023-09-07T02:57:48;10.37;;;9.13;;
54679;SDS011;40578;53.178;5.846;2023-09-07T03:00:14;10.27;;;8.87;;
54679;SDS011;40578;53.178;5.846;2023-09-07T03:02:42;11.07;;;9.48;;
54679;SDS011;40578;53.178;5.846;2023-09-07T03:05:08;9.95;;;8.80;;
54679;SDS011;40578;53.178;5.846;2023-09-07T03:07:34;10.27;;;8.70;;
54679;SDS011;40578;53.178;5.846;2023-09-07T03:10:00;10.90;;;8.97;;
54679;SDS011;40578;53.178;5.846;2023-09-07T03:12:26;10.25;;;8.52;;
54679;SDS011;40578;53.178;5.846;2023-09-07T03:14:52;10.68;;;8.68;;
54679;SDS011;40578;53.178;5.846;2023-09-07T03:17:18;10.70;;;8.60;;
54679;SDS011;40578;53.178;5.846;2023-09-07T03:19:46;13.00;;;8.88;;
54679;SDS011;40578;53.178;5.846;2023-09-07T03:22:12;11.82;;;8.98;;
54679;SDS011;40578;53.178;5.846;2023-09-07T03:24:38;14.30;;;8.68;;
54679;SDS011;40578;53.178;5.846;2023-09-07T03:27:04;10.47;;;8.60;;
54679;SDS011;40578;53.178;5.846;2023-09-07T03:29:33;9.57;;;8.52;;
54679;SDS011;40578;53.178;5.846;2023-09-07T03:32:00;10.13;;;9.02;;
54679;SDS011;40578;53.178;5.846;2023-09-07T03:34:26;11.10;;;9.05;;
54679;SDS011;40578;53.178;5.846;2023-09-07T03:36:52;9.83;;;8.80;;
54679;SDS011;40578;53.178;5.846;2023-09-07T03:39:17;11.73;;;8.97;;
54679;SDS011;40578;53.178;5.846;2023-09-07T03:41:44;11.20;;;9.07;;
54679;SDS011;40578;53.178;5.846;2023-09-07T03:44:10;10.00;;;8.98;;
54679;SDS011;40578;53.178;5.846;2023-09-07T03:46:36;10.00;;;9.00;;
54679;SDS011;40578;53.178;5.846;2023-09-07T03:49:01;12.93;;;10.47;;
54679;SDS011;40578;53.178;5.846;2023-09-07T03:51:27;10.18;;;8.63;;
54679;SDS011;40578;53.178;5.846;2023-09-07T03:53:53;12.27;;;9.53;;
54679;SDS011;40578;53.178;5.846;2023-09-07T03:56:19;10.97;;;9.73;;
54679;SDS011;40578;53.178;5.846;2023-09-07T03:58:44;15.40;;;10.93;;
54679;SDS011;40578;53.178;5.846;2023-09-07T04:01:12;15.02;;;10.07;;
54679;SDS011;40578;53.178;5.846;2023-09-07T04:03:38;11.88;;;9.18;;
54679;SDS011;40578;53.178;5.846;2023-09-07T04:08:31;12.82;;;10.05;;
54679;SDS011;40578;53.178;5.846;2023-09-07T04:10:56;14.93;;;10.03;;
54679;SDS011;40578;53.178;5.846;2023-09-07T04:13:22;13.07;;;10.20;;
54679;SDS011;40578;53.178;5.846;2023-09-07T04:15:47;14.00;;;10.63;;
54679;SDS011;40578;53.178;5.846;2023-09-07T04:18:13;13.18;;;10.13;;
54679;SDS011;40578;53.178;5.846;2023-09-07T04:20:43;14.18;;;10.15;;
54679;SDS011;40578;53.178;5.846;2023-09-07T04:23:08;10.80;;;9.63;;
54679;SDS011;40578;53.178;5.846;2023-09-07T04:25:34;12.63;;;9.93;;
54679;SDS011;40578;53.178;5.846;2023-09-07T04:28:00;12.53;;;10.67;;
54679;SDS011;40578;53.178;5.846;2023-09-07T04:30:26;12.10;;;10.20;;
54679;SDS011;40578;53.178;5.846;2023-09-07T04:32:52;12.20;;;10.95;;
54679;SDS011;40578;53.178;5.846;2023-09-07T04:35:17;11.43;;;10.23;;
54679;SDS011;40578;53.178;5.846;2023-09-07T04:37:43;12.23;;;10.90;;
54679;SDS011;40578;53.178;5.846;2023-09-07T04:42:36;13.15;;;10.45;;
54679;SDS011;40578;53.178;5.846;2023-09-07T04:45:03;13.98;;;10.27;;
54679;SDS011;40578;53.178;5.846;2023-09-07T04:47:30;13.50;;;10.27;;
54679;SDS011;40578;53.178;5.846;2023-09-07T04:49:55;15.33;;;10.43;;
54679;SDS011;40578;53.178;5.846;2023-09-07T04:52:21;12.67;;;10.63;;
54679;SDS011;40578;53.178;5.846;2023-09-07T04:54:50;14.30;;;11.18;;
54679;SDS011;40578;53.178;5.846;2023-09-07T04:57:16;11.93;;;10.70;;
54679;SDS011;40578;53.178;5.846;2023-09-07T04:59:44;15.48;;;11.00;;
54679;SDS011;40578;53.178;5.846;2023-09-07T05:02:10;14.13;;;11.17;;
54679;SDS011;40578;53.178;5.846;2023-09-07T05:04:37;15.45;;;10.73;;
54679;SDS011;40578;53.178;5.846;2023-09-07T05:07:03;12.20;;;10.10;;
54679;SDS011;40578;53.178;5.846;2023-09-07T05:09:28;12.60;;;10.50;;
54679;SDS011;40578;53.178;5.846;2023-09-07T05:11:55;12.23;;;11.00;;
54679;SDS011;40578;53.178;5.846;2023-09-07T05:14:21;17.58;;;11.32;;
54679;SDS011;40578;53.178;5.846;2023-09-07T05:16:49;12.57;;;11.18;;
54679;SDS011;40578;53.178;5.846;2023-09-07T05:19:14;12.83;;;10.27;;
54679;SDS011;40578;53.178;5.846;2023-09-07T05:21:40;12.10;;;10.40;;
54679;SDS011;40578;53.178;5.846;2023-09-07T05:24:06;12.40;;;11.10;;
54679;SDS011;40578;53.178;5.846;2023-09-07T05:26:31;12.33;;;11.03;;
54679;SDS011;40578;53.178;5.846;2023-09-07T05:28:57;11.03;;;9.83;;
54679;SDS011;40578;53.178;5.846;2023-09-07T05:31:23;14.40;;;11.00;;
54679;SDS011;40578;53.178;5.846;2023-09-07T05:33:48;11.77;;;10.57;;
54679;SDS011;40578;53.178;5.846;2023-09-07T05:36:14;12.77;;;11.27;;
54679;SDS011;40578;53.178;5.846;2023-09-07T05:38:40;15.40;;;10.80;;
54679;SDS011;40578;53.178;5.846;2023-09-07T05:41:05;13.70;;;11.13;;
54679;SDS011;40578;53.178;5.846;2023-09-07T05:43:32;13.75;;;11.05;;
54679;SDS011;40578;53.178;5.846;2023-09-07T05:45:57;14.53;;;10.90;;
54679;SDS011;40578;53.178;5.846;2023-09-07T05:48:23;14.13;;;11.30;;
54679;SDS011;40578;53.178;5.846;2023-09-07T05:50:48;16.83;;;10.70;;
54679;SDS011;40578;53.178;5.846;2023-09-07T05:53:14;14.00;;;10.97;;
54679;SDS011;40578;53.178;5.846;2023-09-07T05:55:40;13.13;;;10.70;;
54679;SDS011;40578;53.178;5.846;2023-09-07T05:58:06;13.23;;;10.60;;
54679;SDS011;40578;53.178;5.846;2023-09-07T06:00:34;13.63;;;10.45;;
54679;SDS011;40578;53.178;5.846;2023-09-07T06:03:00;12.32;;;10.55;;
54679;SDS011;40578;53.178;5.846;2023-09-07T06:05:26;13.97;;;11.30;;
54679;SDS011;40578;53.178;5.846;2023-09-07T06:07:52;13.60;;;10.60;;
54679;SDS011;40578;53.178;5.846;2023-09-07T06:10:17;12.83;;;10.60;;
54679;SDS011;40578;53.178;5.846;2023-09-07T06:12:44;11.65;;;10.23;;
54679;SDS011;40578;53.178;5.846;2023-09-07T06:15:10;11.77;;;10.57;;
54679;SDS011;40578;53.178;5.846;2023-09-07T06:17:36;17.60;;;11.23;;
54679;SDS011;40578;53.178;5.846;2023-09-07T06:20:01;11.33;;;9.50;;
54679;SDS011;40578;53.178;5.846;2023-09-07T06:22:28;12.23;;;10.43;;
54679;SDS011;40578;53.178;5.846;2023-09-07T06:24:53;11.03;;;9.93;;
54679;SDS011;40578;53.178;5.846;2023-09-07T06:27:19;11.53;;;10.37;;
54679;SDS011;40578;53.178;5.846;2023-09-07T06:29:45;12.30;;;10.20;;
54679;SDS011;40578;53.178;5.846;2023-09-07T06:32:11;13.30;;;10.10;;
54679;SDS011;40578;53.178;5.846;2023-09-07T06:34:37;11.37;;;9.93;;
54679;SDS011;40578;53.178;5.846;2023-09-07T06:37:02;11.40;;;10.20;;
54679;SDS011;40578;53.178;5.846;2023-09-07T06:39:28;13.67;;;10.47;;
54679;SDS011;40578;53.178;5.846;2023-09-07T06:41:53;14.67;;;10.67;;
54679;SDS011;40578;53.178;5.846;2023-09-07T06:44:19;13.17;;;10.53;;
54679;SDS011;40578;53.178;5.846;2023-09-07T06:46:45;12.10;;;10.57;;
54679;SDS011;40578;53.178;5.846;2023-09-07T06:49:10;13.53;;;10.73;;
54679;SDS011;40578;53.178;5.846;2023-09-07T06:51:36;13.53;;;10.80;;
54679;SDS011;40578;53.178;5.846;2023-09-07T06:54:02;14.18;;;10.93;;
54679;SDS011;40578;53.178;5.846;2023-09-07T06:56:28;14.40;;;10.95;;
54679;SDS011;40578;53.178;5.846;2023-09-07T06:58:56;11.88;;;9.88;;
54679;SDS011;40578;53.178;5.846;2023-09-07T07:01:22;16.10;;;10.17;;
54679;SDS011;40578;53.178;5.846;2023-09-07T07:03:47;12.50;;;10.87;;
54679;SDS011;40578;53.178;5.846;2023-09-07T07:06:15;11.95;;;10.35;;
54679;SDS011;40578;53.178;5.846;2023-09-07T07:08:40;13.57;;;10.43;;
54679;SDS011;40578;53.178;5.846;2023-09-07T07:11:06;12.27;;;9.87;;
54679;SDS011;40578;53.178;5.846;2023-09-07T07:13:33;12.95;;;10.65;;
54679;SDS011;40578;53.178;5.846;2023-09-07T07:15:58;12.17;;;10.10;;
54679;SDS011;40578;53.178;5.846;2023-09-07T07:18:24;13.27;;;10.30;;
54679;SDS011;40578;53.178;5.846;2023-09-07T07:20:49;11.33;;;10.03;;
54679;SDS011;40578;53.178;5.846;2023-09-07T07:23:16;12.40;;;10.75;;
54679;SDS011;40578;53.178;5.846;2023-09-07T07:25:41;11.65;;;10.15;;
54679;SDS011;40578;53.178;5.846;2023-09-07T07:28:07;13.63;;;10.03;;
54679;SDS011;40578;53.178;5.846;2023-09-07T07:30:33;12.27;;;9.90;;
54679;SDS011;40578;53.178;5.846;2023-09-07T07:33:03;13.52;;;10.50;;
54679;SDS011;40578;53.178;5.846;2023-09-07T07:35:33;12.60;;;10.57;;
54679;SDS011;40578;53.178;5.846;2023-09-07T07:38:02;12.75;;;10.45;;
54679;SDS011;40578;53.178;5.846;2023-09-07T07:40:29;12.88;;;9.95;;
54679;SDS011;40578;53.178;5.846;2023-09-07T07:42:55;11.75;;;10.52;;
54679;SDS011;40578;53.178;5.846;2023-09-07T07:45:20;11.80;;;10.50;;
54679;SDS011;40578;53.178;5.846;2023-09-07T07:47:48;14.65;;;10.05;;
54679;SDS011;40578;53.178;5.846;2023-09-07T07:50:14;13.98;;;10.05;;
54679;SDS011;40578;53.178;5.846;2023-09-07T07:52:40;14.95;;;10.43;;
54679;SDS011;40578;53.178;5.846;2023-09-07T07:55:05;14.53;;;10.30;;
54679;SDS011;40578;53.178;5.846;2023-09-07T07:57:31;13.52;;;10.43;;
54679;SDS011;40578;53.178;5.846;2023-09-07T07:59:57;11.97;;;10.67;;
54679;SDS011;40578;53.178;5.846;2023-09-07T08:02:23;13.38;;;9.88;;
54679;SDS011;40578;53.178;5.846;2023-09-07T08:04:49;12.73;;;9.60;;
54679;SDS011;40578;53.178;5.846;2023-09-07T08:07:14;13.20;;;9.90;;
54679;SDS011;40578;53.178;5.846;2023-09-07T08:09:40;12.47;;;9.43;;
54679;SDS011;40578;53.178;5.846;2023-09-07T08:12:05;9.90;;;8.63;;
54679;SDS011;40578;53.178;5.846;2023-09-07T08:14:31;11.02;;;9.60;;
54679;SDS011;40578;53.178;5.846;2023-09-07T08:16:57;11.65;;;8.70;;
54679;SDS011;40578;53.178;5.846;2023-09-07T08:19:24;9.45;;;7.68;;
54679;SDS011;40578;53.178;5.846;2023-09-07T08:21:50;10.75;;;8.32;;
54679;SDS011;40578;53.178;5.846;2023-09-07T08:24:16;11.93;;;7.80;;
54679;SDS011;40578;53.178;5.846;2023-09-07T08:26:41;10.93;;;6.77;;
54679;SDS011;40578;53.178;5.846;2023-09-07T08:29:08;8.40;;;6.93;;
54679;SDS011;40578;53.178;5.846;2023-09-07T08:31:34;8.60;;;6.50;;
54679;SDS011;40578;53.178;5.846;2023-09-07T08:34:00;8.45;;;6.55;;
54679;SDS011;40578;53.178;5.846;2023-09-07T08:36:28;11.38;;;6.28;;
54679;SDS011;40578;53.178;5.846;2023-09-07T08:38:57;9.52;;;6.78;;
54679;SDS011;40578;53.178;5.846;2023-09-07T08:41:26;10.23;;;6.05;;
54679;SDS011;40578;53.178;5.846;2023-09-07T08:43:52;8.32;;;6.88;;
54679;SDS011;40578;53.178;5.846;2023-09-07T08:46:20;9.10;;;6.72;;
54679;SDS011;40578;53.178;5.846;2023-09-07T08:48:48;8.45;;;7.40;;
54679;SDS011;40578;53.178;5.846;2023-09-07T08:51:15;9.88;;;7.30;;
54679;SDS011;40578;53.178;5.846;2023-09-07T08:53:42;8.65;;;6.93;;
54679;SDS011;40578;53.178;5.846;2023-09-07T08:56:11;10.13;;;6.93;;
54679;SDS011;40578;53.178;5.846;2023-09-07T08:58:41;8.18;;;6.53;;
54679;SDS011;40578;53.178;5.846;2023-09-07T09:01:07;9.93;;;6.93;;
54679;SDS011;40578;53.178;5.846;2023-09-07T09:03:36;8.25;;;6.45;;
54679;SDS011;40578;53.178;5.846;2023-09-07T09:06:05;10.38;;;6.07;;
54679;SDS011;40578;53.178;5.846;2023-09-07T09:08:42;8.00;;;6.45;;
54679;SDS011;40578;53.178;5.846;2023-09-07T09:11:09;9.05;;;6.38;;
54679;SDS011;40578;53.178;5.846;2023-09-07T09:13:35;6.88;;;6.18;;
54679;SDS011;40578;53.178;5.846;2023-09-07T09:16:01;8.30;;;6.32;;
54679;SDS011;40578;53.178;5.846;2023-09-07T09:18:28;11.23;;;7.18;;
54679;SDS011;40578;53.178;5.846;2023-09-07T09:20:54;8.20;;;6.32;;
54679;SDS011;40578;53.178;5.846;2023-09-07T09:23:20;8.00;;;6.45;;
54679;SDS011;40578;53.178;5.846;2023-09-07T09:25:47;9.43;;;6.00;;
54679;SDS011;40578;53.178;5.846;2023-09-07T09:28:14;8.40;;;6.47;;
54679;SDS011;40578;53.178;5.846;2023-09-07T09:30:41;9.05;;;5.82;;
54679;SDS011;40578;53.178;5.846;2023-09-07T09:33:10;8.18;;;6.22;;
54679;SDS011;40578;53.178;5.846;2023-09-07T09:35:36;8.68;;;6.45;;
54679;SDS011;40578;53.178;5.846;2023-09-07T09:38:03;7.63;;;6.40;;
54679;SDS011;40578;53.178;5.846;2023-09-07T09:40:32;13.10;;;6.22;;
54679;SDS011;40578;53.178;5.846;2023-09-07T09:42:59;7.13;;;5.85;;
54679;SDS011;40578;53.178;5.846;2023-09-07T09:45:27;7.68;;;6.07;;
54679;SDS011;40578;53.178;5.846;2023-09-07T09:47:54;10.73;;;6.35;;
54679;SDS011;40578;53.178;5.846;2023-09-07T09:50:23;9.68;;;6.10;;
54679;SDS011;40578;53.178;5.846;2023-09-07T09:52:49;8.90;;;5.97;;
54679;SDS011;40578;53.178;5.846;2023-09-07T09:55:17;6.25;;;5.50;;
54679;SDS011;40578;53.178;5.846;2023-09-07T09:57:43;9.23;;;6.23;;
54679;SDS011;40578;53.178;5.846;2023-09-07T10:00:09;10.77;;;6.20;;
54679;SDS011;40578;53.178;5.846;2023-09-07T10:02:49;7.30;;;5.65;;
54679;SDS011;40578;53.178;5.846;2023-09-07T10:05:20;8.43;;;5.50;;
54679;SDS011;40578;53.178;5.846;2023-09-07T10:07:49;8.82;;;5.88;;
54679;SDS011;40578;53.178;5.846;2023-09-07T10:10:15;6.78;;;5.85;;
54679;SDS011;40578;53.178;5.846;2023-09-07T10:12:44;6.85;;;5.50;;
54679;SDS011;40578;53.178;5.846;2023-09-07T10:15:23;7.72;;;5.32;;
54679;SDS011;40578;53.178;5.846;2023-09-07T10:17:50;6.43;;;5.50;;
54679;SDS011;40578;53.178;5.846;2023-09-07T10:20:27;6.28;;;5.07;;
54679;SDS011;40578;53.178;5.846;2023-09-07T10:23:05;7.77;;;4.83;;
54679;SDS011;40578;53.178;5.846;2023-09-07T10:25:31;9.40;;;5.88;;
54679;SDS011;40578;53.178;5.846;2023-09-07T10:27:57;6.75;;;5.15;;
54679;SDS011;40578;53.178;5.846;2023-09-07T10:30:24;6.13;;;5.00;;
54679;SDS011;40578;53.178;5.846;2023-09-07T10:32:50;7.25;;;5.47;;
54679;SDS011;40578;53.178;5.846;2023-09-07T10:35:16;6.23;;;5.17;;
54679;SDS011;40578;53.178;5.846;2023-09-07T10:37:44;9.77;;;5.18;;
54679;SDS011;40578;53.178;5.846;2023-09-07T10:40:11;8.35;;;4.95;;
54679;SDS011;40578;53.178;5.846;2023-09-07T10:42:39;6.90;;;4.80;;
54679;SDS011;40578;53.178;5.846;2023-09-07T10:45:08;5.90;;;5.20;;
54679;SDS011;40578;53.178;5.846;2023-09-07T10:47:40;8.75;;;5.20;;
54679;SDS011;40578;53.178;5.846;2023-09-07T10:50:10;8.25;;;5.22;;
54679;SDS011;40578;53.178;5.846;2023-09-07T10:52:38;6.97;;;5.20;;
54679;SDS011;40578;53.178;5.846;2023-09-07T10:55:05;7.80;;;4.90;;
54679;SDS011;40578;53.178;5.846;2023-09-07T10:59:57;7.97;;;5.05;;
54679;SDS011;40578;53.178;5.846;2023-09-07T11:02:22;6.27;;;5.03;;
54679;SDS011;40578;53.178;5.846;2023-09-07T11:04:48;8.60;;;4.57;;
54679;SDS011;40578;53.178;5.846;2023-09-07T11:07:13;7.33;;;4.63;;
54679;SDS011;40578;53.178;5.846;2023-09-07T11:09:43;7.93;;;4.57;;
54679;SDS011;40578;53.178;5.846;2023-09-07T11:12:11;6.28;;;4.60;;
54679;SDS011;40578;53.178;5.846;2023-09-07T11:14:38;7.30;;;4.28;;
54679;SDS011;40578;53.178;5.846;2023-09-07T11:17:04;6.95;;;5.10;;
54679;SDS011;40578;53.178;5.846;2023-09-07T11:19:33;7.43;;;4.80;;
54679;SDS011;40578;53.178;5.846;2023-09-07T11:21:59;6.65;;;4.88;;
54679;SDS011;40578;53.178;5.846;2023-09-07T11:24:24;5.43;;;4.50;;
54679;SDS011;40578;53.178;5.846;2023-09-07T11:26:51;5.72;;;4.53;;
54679;SDS011;40578;53.178;5.846;2023-09-07T11:29:17;5.85;;;4.65;;
54679;SDS011;40578;53.178;5.846;2023-09-07T11:31:46;7.40;;;4.55;;
54679;SDS011;40578;53.178;5.846;2023-09-07T11:34:12;7.05;;;4.32;;
54679;SDS011;40578;53.178;5.846;2023-09-07T11:36:39;7.25;;;4.60;;
54679;SDS011;40578;53.178;5.846;2023-09-07T11:39:05;8.68;;;4.70;;
54679;SDS011;40578;53.178;5.846;2023-09-07T11:41:43;7.80;;;4.55;;
54679;SDS011;40578;53.178;5.846;2023-09-07T11:44:09;6.47;;;4.25;;
54679;SDS011;40578;53.178;5.846;2023-09-07T11:46:36;9.35;;;4.40;;
54679;SDS011;40578;53.178;5.846;2023-09-07T11:49:01;5.47;;;4.13;;
54679;SDS011;40578;53.178;5.846;2023-09-07T11:51:29;8.27;;;4.40;;
54679;SDS011;40578;53.178;5.846;2023-09-07T11:53:55;8.32;;;4.75;;
54679;SDS011;40578;53.178;5.846;2023-09-07T11:56:21;8.23;;;4.47;;
54679;SDS011;40578;53.178;5.846;2023-09-07T11:58:46;9.38;;;4.78;;
54679;SDS011;40578;53.178;5.846;2023-09-07T12:01:12;5.70;;;4.45;;
54679;SDS011;40578;53.178;5.846;2023-09-07T12:03:41;6.90;;;4.43;;
54679;SDS011;40578;53.178;5.846;2023-09-07T12:06:08;7.60;;;4.68;;
54679;SDS011;40578;53.178;5.846;2023-09-07T12:08:34;8.60;;;4.53;;
54679;SDS011;40578;53.178;5.846;2023-09-07T12:11:00;6.18;;;4.80;;
54679;SDS011;40578;53.178;5.846;2023-09-07T12:13:26;6.20;;;4.80;;
54679;SDS011;40578;53.178;5.846;2023-09-07T12:15:51;6.70;;;4.73;;
54679;SDS011;40578;53.178;5.846;2023-09-07T12:18:17;6.47;;;4.65;;
54679;SDS011;40578;53.178;5.846;2023-09-07T12:20:42;8.57;;;4.50;;
54679;SDS011;40578;53.178;5.846;2023-09-07T12:23:09;7.05;;;4.38;;
54679;SDS011;40578;53.178;5.846;2023-09-07T12:25:35;7.70;;;4.40;;
54679;SDS011;40578;53.178;5.846;2023-09-07T12:28:02;7.57;;;4.53;;
54679;SDS011;40578;53.178;5.846;2023-09-07T12:30:28;6.22;;;4.30;;
54679;SDS011;40578;53.178;5.846;2023-09-07T12:32:54;7.28;;;4.72;;
54679;SDS011;40578;53.178;5.846;2023-09-07T12:35:19;7.33;;;4.37;;
54679;SDS011;40578;53.178;5.846;2023-09-07T12:37:46;5.28;;;4.47;;
54679;SDS011;40578;53.178;5.846;2023-09-07T12:40:11;8.48;;;4.75;;
54679;SDS011;40578;53.178;5.846;2023-09-07T12:42:41;7.72;;;4.22;;
54679;SDS011;40578;53.178;5.846;2023-09-07T12:45:09;6.80;;;4.43;;
54679;SDS011;40578;53.178;5.846;2023-09-07T12:47:36;7.60;;;4.40;;
54679;SDS011;40578;53.178;5.846;2023-09-07T12:50:02;7.60;;;4.47;;
54679;SDS011;40578;53.178;5.846;2023-09-07T12:54:54;6.35;;;4.60;;
54679;SDS011;40578;53.178;5.846;2023-09-07T12:57:19;7.83;;;4.40;;
54679;SDS011;40578;53.178;5.846;2023-09-07T12:59:45;7.03;;;4.20;;
54679;SDS011;40578;53.178;5.846;2023-09-07T13:02:10;6.53;;;4.30;;
54679;SDS011;40578;53.178;5.846;2023-09-07T13:04:36;7.30;;;4.65;;
54679;SDS011;40578;53.178;5.846;2023-09-07T13:07:02;6.70;;;4.55;;
54679;SDS011;40578;53.178;5.846;2023-09-07T13:09:28;6.35;;;4.75;;
54679;SDS011;40578;53.178;5.846;2023-09-07T13:11:53;6.65;;;4.40;;
54679;SDS011;40578;53.178;5.846;2023-09-07T13:14:19;7.55;;;4.35;;
54679;SDS011;40578;53.178;5.846;2023-09-07T13:16:44;9.38;;;4.65;;
54679;SDS011;40578;53.178;5.846;2023-09-07T13:19:10;9.98;;;4.63;;
54679;SDS011;40578;53.178;5.846;2023-09-07T13:21:36;7.57;;;4.60;;
54679;SDS011;40578;53.178;5.846;2023-09-07T13:24:02;8.80;;;4.80;;
54679;SDS011;40578;53.178;5.846;2023-09-07T13:26:28;6.20;;;4.68;;
54679;SDS011;40578;53.178;5.846;2023-09-07T13:28:54;6.88;;;4.60;;
54679;SDS011;40578;53.178;5.846;2023-09-07T13:31:19;5.73;;;4.77;;
54679;SDS011;40578;53.178;5.846;2023-09-07T13:33:45;8.25;;;4.57;;
54679;SDS011;40578;53.178;5.846;2023-09-07T13:36:18;5.85;;;4.35;;
54679;SDS011;40578;53.178;5.846;2023-09-07T13:38:43;6.80;;;4.40;;
54679;SDS011;40578;53.178;5.846;2023-09-07T13:41:09;5.75;;;4.35;;
54679;SDS011;40578;53.178;5.846;2023-09-07T13:43:35;8.15;;;4.45;;
54679;SDS011;40578;53.178;5.846;2023-09-07T13:46:00;4.85;;;3.95;;
54679;SDS011;40578;53.178;5.846;2023-09-07T13:48:26;12.65;;;4.78;;
54679;SDS011;40578;53.178;5.846;2023-09-07T13:50:51;7.43;;;4.50;;
54679;SDS011;40578;53.178;5.846;2023-09-07T13:53:17;5.63;;;4.22;;
54679;SDS011;40578;53.178;5.846;2023-09-07T13:55:43;5.90;;;3.95;;
54679;SDS011;40578;53.178;5.846;2023-09-07T13:58:11;6.20;;;4.20;;
54679;SDS011;40578;53.178;5.846;2023-09-07T14:00:37;7.43;;;4.07;;
54679;SDS011;40578;53.178;5.846;2023-09-07T14:03:03;5.47;;;3.80;;
54679;SDS011;40578;53.178;5.846;2023-09-07T14:05:29;5.35;;;3.72;;
54679;SDS011;40578;53.178;5.846;2023-09-07T14:07:55;7.07;;;3.72;;
54679;SDS011;40578;53.178;5.846;2023-09-07T14:10:22;5.20;;;4.05;;
54679;SDS011;40578;53.178;5.846;2023-09-07T14:12:47;6.85;;;3.65;;
54679;SDS011;40578;53.178;5.846;2023-09-07T14:15:13;5.25;;;4.15;;
54679;SDS011;40578;53.178;5.846;2023-09-07T14:17:39;9.82;;;4.20;;
54679;SDS011;40578;53.178;5.846;2023-09-07T14:20:05;6.22;;;3.70;;
54679;SDS011;40578;53.178;5.846;2023-09-07T14:22:31;5.97;;;3.58;;
54679;SDS011;40578;53.178;5.846;2023-09-07T14:24:57;4.85;;;3.60;;
54679;SDS011;40578;53.178;5.846;2023-09-07T14:27:22;4.57;;;3.80;;
54679;SDS011;40578;53.178;5.846;2023-09-07T14:29:49;5.10;;;4.00;;
54679;SDS011;40578;53.178;5.846;2023-09-07T14:32:14;5.80;;;3.95;;
54679;SDS011;40578;53.178;5.846;2023-09-07T14:34:40;5.55;;;3.47;;
54679;SDS011;40578;53.178;5.846;2023-09-07T14:37:07;5.70;;;3.60;;
54679;SDS011;40578;53.178;5.846;2023-09-07T14:39:32;8.38;;;4.10;;
54679;SDS011;40578;53.178;5.846;2023-09-07T14:42:00;6.72;;;4.10;;
54679;SDS011;40578;53.178;5.846;2023-09-07T14:44:26;5.45;;;3.63;;
54679;SDS011;40578;53.178;5.846;2023-09-07T14:46:52;4.55;;;3.33;;